Time;durP1;ratioP1;P1;durP2;ratioP2;P2;SDS_P1;SDS_P2;PMS_P1;PMS_P2;Temp;Humidity;BMP_temperature;BMP_pressure;BME280_temperature;BME280_humidity;BME280_pressure;Samples;Min_cycle;Max_cycle;Signal;HPM_P1;HPM_P2
2021/12/13 00:00:02;;;;;;;5.00;4.60;;;;;;;3.53;89.34;97736.69;5037480;28;20521;-75
2021/12/13 00:02:34;;;;;;;5.27;4.80;;;;;;;3.55;89.16;97734.84;5036219;28;20218;-75
2021/12/13 00:05:06;;;;;;;5.20;4.70;;;;;;;3.56;89.38;97739.16;5044529;28;20198;-70
2021/12/13 00:07:40;;;;;;;5.17;4.67;;;;;;;3.57;89.70;97740.00;5024152;28;20223;-69
2021/12/13 00:10:11;;;;;;;4.93;4.53;;;;;;;3.64;88.81;97737.03;5034944;28;20202;-72
2021/12/13 00:12:41;;;;;;;5.83;5.33;;;;;;;3.60;89.57;97735.47;5025801;28;20325;-71
2021/12/13 00:15:11;;;;;;;5.27;4.77;;;;;;;3.52;88.37;97740.22;5036555;28;20611;-75
2021/12/13 00:17:40;;;;;;;4.33;4.03;;;;;;;3.57;89.16;97740.84;5036656;28;20210;-74
2021/12/13 00:20:12;;;;;;;3.83;3.53;;;;;;;3.55;89.43;97737.44;5033519;28;20207;-76
2021/12/13 00:22:42;;;;;;;4.17;3.80;;;;;;;3.55;88.97;97737.44;5016942;28;20211;-75
2021/12/13 00:25:12;;;;;;;4.70;4.30;;;;;;;3.59;89.09;97738.16;5034396;28;20218;-71
2021/12/13 00:27:40;;;;;;;4.43;4.10;;;;;;;3.60;89.06;97735.47;5036659;28;20219;-75
2021/12/13 00:30:10;;;;;;;4.10;3.80;;;;;;;3.61;89.20;97736.34;5036190;28;20206;-76
2021/12/13 00:32:42;;;;;;;4.10;3.73;;;;;;;3.63;89.52;97734.47;5036445;28;20219;-75
2021/12/13 00:35:12;;;;;;;4.47;4.10;;;;;;;3.61;89.32;97742.41;5036242;28;20290;-74
2021/12/13 00:37:43;;;;;;;4.90;4.50;;;;;;;3.63;88.79;97744.94;5036554;28;20211;-70
2021/12/13 00:40:15;;;;;;;4.20;3.90;;;;;;;3.58;90.19;97741.72;5036664;28;20217;-76
2021/12/13 00:42:44;;;;;;;5.70;4.50;;;;;;;3.58;90.19;97753.00;5038338;28;20235;-76
2021/12/13 00:45:13;;;;;;;5.30;4.30;;;;;;;3.61;90.04;97750.25;5029494;28;20208;-75
2021/12/13 00:47:42;;;;;;;6.53;5.93;;;;;;;3.65;89.60;97754.41;5037728;28;20248;-70
2021/12/13 00:50:12;;;;;;;6.93;6.23;;;;;;;3.66;89.47;97747.41;5037228;28;20287;-72
2021/12/13 00:52:43;;;;;;;8.03;7.23;;;;;;;3.68;88.75;97749.03;5018277;28;20219;-71
2021/12/13 00:55:11;;;;;;;7.53;6.80;;;;;;;3.68;89.73;97749.03;5026758;28;20207;-71
2021/12/13 00:57:45;;;;;;;8.60;7.80;;;;;;;3.74;88.52;97758.34;5035214;28;20200;-72
2021/12/13 01:00:22;;;;;;;9.33;7.97;;;;;;;3.67;89.51;97747.34;5036864;28;20270;-71
2021/12/13 01:02:51;;;;;;;8.33;7.57;;;;;;;3.69;88.70;97749.88;5040370;28;20206;-75
2021/12/13 01:05:20;;;;;;;8.00;7.20;;;;;;;3.78;88.25;97750.28;5048137;28;20261;-75
2021/12/13 01:08:13;;;;;;;7.90;7.17;;;;;;;3.71;88.08;97751.50;5040899;28;20231;-77
2021/12/13 01:11:12;;;;;;;7.57;6.87;;;;;;;3.63;89.49;97758.88;5035607;28;20198;-71
2021/12/13 01:13:47;;;;;;;7.67;7.00;;;;;;;3.59;90.78;97757.31;5033237;28;20199;-75
2021/12/13 01:16:33;;;;;;;8.00;7.20;;;;;;;3.55;89.92;97762.75;5041242;28;20206;-76
2021/12/13 01:19:25;;;;;;;7.47;6.77;;;;;;;3.64;89.12;97760.56;5041470;28;20210;-71
2021/12/13 01:21:58;;;;;;;7.47;6.77;;;;;;;3.58;88.67;97755.63;5038688;28;20237;-72
2021/12/13 01:25:03;;;;;;;7.00;6.33;;;;;;;3.58;89.97;97750.38;5035776;28;20215;-75
2021/12/13 01:27:31;;;;;;;7.13;6.53;;;;;;;3.56;88.98;97764.47;5032648;28;20636;-71
2021/12/13 01:29:57;;;;;;;8.10;6.73;;;;;;;3.54;89.18;97756.72;5037024;28;20641;-72
2021/12/13 01:32:25;;;;;;;7.53;6.83;;;;;;;3.52;88.29;97758.53;5037167;28;20221;-70
2021/12/13 01:34:52;;;;;;;8.23;7.37;;;;;;;3.57;89.66;97755.69;5036206;28;20272;-72
2021/12/13 01:37:19;;;;;;;7.97;7.17;;;;;;;3.53;90.45;97751.53;5035883;28;20211;-76
2021/12/13 01:39:48;;;;;;;8.33;7.53;;;;;;;3.52;89.96;97748.06;5035605;28;20218;-71
2021/12/13 01:42:18;;;;;;;7.87;7.00;;;;;;;3.50;90.35;97742.06;5022507;28;20682;-75
2021/12/13 01:44:47;;;;;;;8.50;7.70;;;;;;;3.49;90.13;97749.06;5022691;28;20218;-71
2021/12/13 01:47:17;;;;;;;8.93;8.03;;;;;;;3.50;90.49;97745.53;5035058;28;20223;-76
2021/12/13 01:49:46;;;;;;;6.13;5.63;;;;;;;3.56;89.98;97748.75;5035695;28;20211;-71
2021/12/13 01:52:15;;;;;;;4.70;4.33;;;;;;;3.53;90.25;97748.91;5035740;28;20203;-71
2021/12/13 01:54:42;;;;;;;4.10;3.80;;;;;;;3.49;91.10;97742.97;5023690;28;20250;-71
2021/12/13 01:57:22;;;;;;;4.30;3.97;;;;;;;3.44;90.71;97734.50;5035473;28;20207;-75
2021/12/13 01:59:53;;;;;;;4.23;3.93;;;;;;;3.48;90.36;97736.06;5024422;28;20219;-76
2021/12/13 02:02:25;;;;;;;4.27;3.93;;;;;;;3.41;91.09;97739.88;5015627;28;20652;-71
2021/12/13 02:04:59;;;;;;;4.53;4.13;;;;;;;3.45;91.50;97736.19;5028234;28;20210;-71
2021/12/13 02:07:29;;;;;;;4.63;4.23;;;;;;;3.51;90.79;97741.13;5028311;28;20571;-71
2021/12/13 02:09:57;;;;;;;4.50;4.10;;;;;;;3.55;89.49;97745.31;5015231;28;20212;-70
2021/12/13 02:12:28;;;;;;;4.63;3.67;;;;;;;3.47;90.22;97744.84;5034558;28;20222;-76
2021/12/13 02:17:38;;;;;;;4.10;3.80;;;;;;;3.39;90.38;97744.34;5034946;28;20269;-75
2021/12/13 02:20:09;;;;;;;4.03;3.70;;;;;;;3.37;90.57;97738.31;5018226;28;20210;-77
2021/12/13 02:22:39;;;;;;;3.10;2.90;;;;;;;3.24;91.32;97738.06;5015983;28;20624;-72
2021/12/13 02:25:13;;;;;;;3.77;3.47;;;;;;;3.26;90.97;97745.84;5035261;28;20207;-75
2021/12/13 02:27:42;;;;;;;3.17;2.97;;;;;;;3.26;91.09;97741.44;5038909;28;20234;-72
2021/12/13 02:30:20;;;;;;;3.63;3.33;;;;;;;3.23;91.29;97738.13;5039280;28;20217;-71
2021/12/13 02:32:47;;;;;;;3.80;3.50;;;;;;;3.23;91.28;97746.81;5039501;28;20211;-76
2021/12/13 02:35:15;;;;;;;4.07;3.77;;;;;;;3.28;91.00;97744.00;5040209;28;20227;-71
2021/12/13 02:37:45;;;;;;;4.10;3.70;;;;;;;3.28;90.83;97738.78;5039989;28;20207;-70
2021/12/13 02:40:13;;;;;;;3.63;3.33;;;;;;;3.29;91.12;97735.25;5057684;28;20211;-73
2021/12/13 02:42:41;;;;;;;3.87;3.57;;;;;;;3.27;90.91;97734.44;5056260;28;20680;-71
2021/12/13 02:45:14;;;;;;;3.53;3.33;;;;;;;3.23;91.83;97736.38;5042605;28;20203;-72
2021/12/13 02:47:48;;;;;;;3.50;3.30;;;;;;;3.22;91.82;97728.63;5038456;28;20226;-75
2021/12/13 02:50:18;;;;;;;4.17;3.77;;;;;;;3.30;90.29;97726.47;5038707;28;20600;-71
2021/12/13 02:52:46;;;;;;;5.20;4.80;;;;;;;3.24;90.99;97725.00;5038256;28;20199;-71
2021/12/13 02:55:18;;;;;;;6.13;5.63;;;;;;;3.24;90.51;97721.53;5026826;28;20207;-76
2021/12/13 02:57:47;;;;;;;5.93;5.43;;;;;;;3.14;90.46;97720.28;5026160;28;20534;-71
2021/12/13 03:00:17;;;;;;;5.97;5.47;;;;;;;3.12;91.54;97714.28;5039307;28;20199;-74
2021/12/13 03:02:45;;;;;;;6.57;6.00;;;;;;;3.07;91.19;97717.09;5057758;28;20193;-71
2021/12/13 03:05:19;;;;;;;6.80;6.00;;;;;;;3.09;91.14;97719.63;5050169;28;20213;-71
2021/12/13 03:07:50;;;;;;;6.63;6.03;;;;;;;3.10;90.85;97713.50;5038353;28;20626;-72
2021/12/13 03:10:21;;;;;;;6.57;5.90;;;;;;;3.04;89.98;97717.25;5037646;28;20204;-72
2021/12/13 03:12:48;;;;;;;6.67;5.70;;;;;;;3.05;89.91;97724.13;5029103;28;20207;-71
2021/12/13 03:15:18;;;;;;;6.73;6.13;;;;;;;2.99;91.36;97720.06;5021791;28;20215;-72
2021/12/13 03:17:49;;;;;;;6.47;5.80;;;;;;;3.01;90.79;97715.59;5023831;28;20214;-71
2021/12/13 03:20:27;;;;;;;5.93;5.43;;;;;;;2.97;90.84;97708.84;5040888;28;20578;-75
2021/12/13 03:23:15;;;;;;;6.53;5.97;;;;;;;2.88;91.33;97711.88;5037295;28;20506;-71
2021/12/13 03:25:57;;;;;;;7.03;6.30;;;;;;;2.95;90.50;97709.81;5040712;28;20199;-74
2021/12/13 03:28:38;;;;;;;6.87;6.23;;;;;;;2.94;90.88;97708.97;5043740;28;20253;-71
2021/12/13 03:31:07;;;;;;;7.17;6.50;;;;;;;2.95;90.60;97704.59;5043632;28;20207;-76
2021/12/13 03:33:36;;;;;;;7.50;6.80;;;;;;;2.81;91.14;97701.75;5042842;28;20210;-72
2021/12/13 03:36:07;;;;;;;7.97;7.17;;;;;;;2.75;92.01;97717.72;5038243;28;20208;-77
2021/12/13 03:38:42;;;;;;;7.60;6.90;;;;;;;2.73;91.76;97711.72;5017585;28;20230;-76
2021/12/13 03:41:12;;;;;;;8.47;7.63;;;;;;;2.70;91.39;97710.09;5017275;28;20255;-75
2021/12/13 03:43:45;;;;;;;8.17;7.47;;;;;;;2.74;90.93;97714.25;5030918;28;20210;-75
2021/12/13 03:46:14;;;;;;;8.10;7.30;;;;;;;2.69;91.38;97700.56;5026719;28;20200;-70
2021/12/13 03:48:43;;;;;;;8.37;7.63;;;;;;;2.60;92.19;97703.59;5017540;28;20570;-72
2021/12/13 03:51:12;;;;;;;9.13;8.27;;;;;;;2.59;92.14;97701.88;5028087;28;20310;-71
2021/12/13 03:53:41;;;;;;;8.23;7.50;;;;;;;2.49;93.32;97695.38;5037986;28;20641;-77
2021/12/13 03:56:11;;;;;;;7.77;7.13;;;;;;;2.48;92.80;97693.66;5042915;28;20622;-76
2021/12/13 03:58:43;;;;;;;8.50;7.50;;;;;;;2.39;93.30;97688.88;5028028;28;20203;-76
2021/12/13 04:01:13;;;;;;;8.17;7.37;;;;;;;2.50;92.68;97694.47;5017951;28;20213;-71
2021/12/13 04:03:42;;;;;;;7.50;6.80;;;;;;;2.51;91.58;97689.16;5031630;28;20225;-76
2021/12/13 04:06:09;;;;;;;7.07;6.47;;;;;;;2.47;92.36;97697.22;5044351;28;20214;-76
2021/12/13 04:08:36;;;;;;;7.70;7.00;;;;;;;2.51;92.55;97699.59;5036816;28;20227;-76
2021/12/13 04:11:07;;;;;;;7.33;6.63;;;;;;;2.54;91.78;97703.00;5036100;28;20215;-71
2021/12/13 04:13:37;;;;;;;7.60;6.90;;;;;;;2.55;91.53;97702.94;5035545;28;20527;-72
2021/12/13 04:16:13;;;;;;;6.60;6.00;;;;;;;2.57;91.50;97708.94;5035866;28;20211;-72
2021/12/13 04:19:06;;;;;;;7.47;6.87;;;;;;;2.56;91.83;97706.38;5033619;28;20205;-70
2021/12/13 04:21:37;;;;;;;8.47;6.73;;;;;;;2.49;92.40;97706.66;5035724;28;20210;-75
2021/12/13 04:24:07;;;;;;;7.47;6.87;;;;;;;2.54;91.65;97706.47;5036748;28;20208;-76
2021/12/13 04:26:39;;;;;;;7.13;6.43;;;;;;;2.50;91.85;97707.53;5035488;28;20218;-72
2021/12/13 04:29:13;;;;;;;7.77;6.90;;;;;;;2.43;92.00;97700.88;5036398;28;20229;-72
2021/12/13 04:31:40;;;;;;;7.00;6.40;;;;;;;2.47;92.33;97712.88;5036853;28;20607;-75
2021/12/13 04:34:07;;;;;;;8.17;7.10;;;;;;;2.43;92.12;97700.88;5037561;28;20209;-76
2021/12/13 04:36:36;;;;;;;7.70;7.00;;;;;;;2.40;91.57;97712.31;5036315;28;20660;-72
2021/12/13 04:39:08;;;;;;;8.67;7.60;;;;;;;2.41;92.33;97713.13;5036026;28;20203;-74
2021/12/13 04:41:39;;;;;;;8.17;7.47;;;;;;;2.39;93.14;97709.75;5035462;28;20238;-75
2021/12/13 04:44:09;;;;;;;8.27;7.40;;;;;;;2.31;93.33;97711.84;5036000;28;20221;-71
2021/12/13 04:46:37;;;;;;;9.10;8.20;;;;;;;2.37;92.70;97714.19;5035958;28;20210;-70
2021/12/13 04:49:08;;;;;;;8.80;7.97;;;;;;;2.30;92.31;97723.22;5035691;28;20293;-72
2021/12/13 04:51:41;;;;;;;7.70;7.00;;;;;;;2.28;93.51;97722.41;5035330;28;20648;-76
2021/12/13 04:54:08;;;;;;;8.47;7.67;;;;;;;2.22;93.53;97710.50;5019343;28;20270;-75
2021/12/13 04:56:35;;;;;;;8.93;8.13;;;;;;;2.29;92.75;97713.69;5031523;28;20228;-72
2021/12/13 04:59:04;;;;;;;11.33;10.20;;;;;;;2.31;92.42;97717.06;5025561;28;20556;-76
2021/12/13 05:01:31;;;;;;;10.60;9.50;;;;;;;2.31;92.19;97720.53;5035196;28;20219;-76
2021/12/13 05:03:59;;;;;;;11.27;9.43;;;;;;;2.32;92.11;97721.38;5035376;28;20267;-75
2021/12/13 05:06:30;;;;;;;10.00;9.00;;;;;;;2.23;92.11;97724.41;5043888;28;20203;-75
2021/12/13 05:08:59;;;;;;;9.80;8.60;;;;;;;2.16;92.01;97726.38;5035519;28;20234;-71
2021/12/13 05:11:29;;;;;;;10.13;8.90;;;;;;;2.18;91.67;97731.56;5035810;28;20210;-75
2021/12/13 05:13:57;;;;;;;9.57;8.67;;;;;;;2.04;91.99;97731.28;5035415;28;20615;-75
2021/12/13 05:16:38;;;;;;;9.23;8.43;;;;;;;1.98;92.29;97722.81;5035867;28;20209;-75
2021/12/13 05:19:06;;;;;;;9.63;8.73;;;;;;;1.97;93.17;97722.88;5031874;28;20198;-70
2021/12/13 05:21:36;;;;;;;10.80;9.70;;;;;;;2.06;91.58;97721.63;5043269;28;20206;-75
2021/12/13 05:24:05;;;;;;;11.60;10.50;;;;;;;2.02;92.13;97725.31;5049982;28;20210;-70
2021/12/13 05:26:34;;;;;;;11.33;10.10;;;;;;;1.88;92.87;97729.31;5031545;28;20214;-71
2021/12/13 05:29:01;;;;;;;10.83;9.73;;;;;;;1.87;92.73;97725.03;5028279;28;20232;-74
2021/12/13 05:31:31;;;;;;;11.10;10.00;;;;;;;1.84;92.45;97725.13;5034571;28;20523;-74
2021/12/13 05:34:00;;;;;;;11.73;10.60;;;;;;;1.86;92.40;97727.69;5035184;28;20217;-75
2021/12/13 05:36:29;;;;;;;12.43;10.10;;;;;;;1.83;92.68;97740.88;5035499;28;20245;-75
2021/12/13 05:39:05;;;;;;;11.93;10.60;;;;;;;1.71;93.19;97737.00;5035849;28;20221;-76
2021/12/13 05:41:32;;;;;;;13.23;10.87;;;;;;;1.67;93.12;97739.78;5035224;28;20241;-75
2021/12/13 05:44:00;;;;;;;11.17;10.07;;;;;;;1.76;92.86;97744.63;5035455;28;20205;-75
2021/12/13 05:46:36;;;;;;;12.10;10.90;;;;;;;1.76;92.26;97740.28;5035215;28;20272;-72
2021/12/13 05:49:05;;;;;;;14.13;12.37;;;;;;;1.73;92.46;97744.75;5032106;28;20225;-71
2021/12/13 05:51:35;;;;;;;13.90;12.50;;;;;;;1.70;92.20;97745.72;5029304;28;20221;-76
2021/12/13 05:54:04;;;;;;;13.77;12.23;;;;;;;1.56;93.18;97750.63;5035689;28;20215;-76
2021/12/13 05:56:36;;;;;;;13.33;12.03;;;;;;;1.50;93.31;97745.69;5035281;28;20206;-71
2021/12/13 05:59:13;;;;;;;13.57;12.17;;;;;;;1.42;94.39;97739.91;5035643;28;20214;-76
2021/12/13 06:01:59;;;;;;;13.43;12.13;;;;;;;1.51;94.15;97749.97;5039721;28;20586;-76
2021/12/13 06:04:33;;;;;;;14.00;12.60;;;;;;;1.46;93.96;97738.88;5031612;28;20660;-70
2021/12/13 06:07:00;;;;;;;13.17;11.87;;;;;;;1.41;94.51;97740.84;5043579;28;20207;-71
2021/12/13 06:09:41;;;;;;;14.30;12.90;;;;;;;1.40;93.39;97745.19;5039985;28;20251;-71
2021/12/13 06:12:11;;;;;;;13.53;12.20;;;;;;;1.48;93.47;97744.91;5040141;28;20209;-71
2021/12/13 06:14:38;;;;;;;16.53;13.13;;;;;;;1.41;93.38;97744.28;5040176;28;20240;-76
2021/12/13 06:17:09;;;;;;;15.03;13.50;;;;;;;1.36;94.41;97741.00;5038925;28;20220;-76
2021/12/13 06:19:40;;;;;;;15.50;13.90;;;;;;;1.35;94.13;97741.06;5039919;28;20700;-76
2021/12/13 06:22:10;;;;;;;14.90;13.40;;;;;;;1.40;93.29;97741.75;5036818;28;20196;-71
2021/12/13 06:24:40;;;;;;;15.93;14.23;;;;;;;1.41;93.26;97735.63;5033175;28;20615;-77
2021/12/13 06:27:11;;;;;;;14.87;13.47;;;;;;;1.31;94.66;97737.72;5038930;28;20200;-77
2021/12/13 06:29:48;;;;;;;17.43;14.03;;;;;;;1.24;94.89;97745.88;5039167;28;20226;-76
2021/12/13 06:32:27;;;;;;;14.67;13.13;;;;;;;1.28;94.62;97747.41;5039393;28;20212;-71
2021/12/13 06:34:53;;;;;;;16.23;14.53;;;;;;;1.32;93.91;97749.00;5039752;28;20210;-76
2021/12/13 06:37:25;;;;;;;15.70;14.20;;;;;;;1.35;94.20;97748.88;5038979;28;20520;-76
2021/12/13 06:39:53;;;;;;;14.87;13.40;;;;;;;1.37;94.82;97752.28;5038696;28;20208;-75
2021/12/13 06:42:26;;;;;;;16.63;14.93;;;;;;;1.40;93.91;97742.59;5036465;28;20246;-71
2021/12/13 06:44:52;;;;;;;16.50;14.67;;;;;;;1.40;93.82;97752.16;5031363;28;20202;-71
2021/12/13 06:47:22;;;;;;;17.83;15.83;;;;;;;1.42;93.33;97756.41;5033690;28;20213;-76
2021/12/13 06:49:52;;;;;;;16.63;14.80;;;;;;;1.39;94.17;97766.94;5027929;28;20215;-71
2021/12/13 06:52:22;;;;;;;15.60;13.97;;;;;;;1.45;94.11;97760.66;5034753;28;20275;-71
2021/12/13 06:54:50;;;;;;;18.30;16.33;;;;;;;1.47;93.74;97764.03;5038644;28;20209;-71
2021/12/13 06:57:20;;;;;;;18.70;15.63;;;;;;;1.51;93.91;97768.22;5038136;28;20232;-71
2021/12/13 06:59:50;;;;;;;17.83;15.97;;;;;;;1.52;94.05;97778.59;5038407;28;20199;-76
2021/12/13 07:02:19;;;;;;;18.17;16.17;;;;;;;1.58;94.17;97780.13;5034327;28;20210;-75
2021/12/13 07:05:02;;;;;;;18.20;16.30;;;;;;;1.65;93.57;97785.94;5037956;28;20200;-71
2021/12/13 07:07:32;;;;;;;18.47;16.57;;;;;;;1.64;93.19;97781.63;5025324;28;20200;-71
2021/12/13 07:10:04;;;;;;;18.37;16.40;;;;;;;1.67;93.56;97782.34;5037628;28;20652;-74
2021/12/13 07:12:32;;;;;;;19.17;16.63;;;;;;;1.66;94.48;97779.81;5039077;28;20220;-71
2021/12/13 07:15:00;;;;;;;19.50;17.37;;;;;;;1.67;93.11;97779.75;5038765;28;20217;-71
2021/12/13 07:17:30;;;;;;;22.23;17.80;;;;;;;1.67;93.74;97786.69;5038256;28;20209;-76
2021/12/13 07:19:58;;;;;;;34.03;18.37;;;;;;;1.70;95.35;97790.03;5034905;28;20200;-71
2021/12/13 07:22:28;;;;;;;21.27;17.60;;;;;;;1.80;94.36;97788.78;5038213;28;20228;-75
2021/12/13 07:25:04;;;;;;;20.90;17.27;;;;;;;1.84;94.43;97794.72;5032518;28;20211;-70
2021/12/13 07:27:34;;;;;;;20.60;17.50;;;;;;;1.89;95.02;97792.75;5047004;28;20205;-75
2021/12/13 07:30:08;;;;;;;19.83;17.20;;;;;;;1.97;94.72;97799.38;5047981;28;20240;-71
2021/12/13 07:32:36;;;;;;;19.13;16.60;;;;;;;2.00;94.68;97799.25;5038578;28;20212;-76
2021/12/13 07:35:07;;;;;;;18.57;16.47;;;;;;;2.05;93.91;97799.06;5017948;28;20210;-76
2021/12/13 07:37:46;;;;;;;19.80;16.60;;;;;;;2.04;93.67;97802.59;5024963;28;20199;-70
2021/12/13 07:40:34;;;;;;;18.50;16.03;;;;;;;2.09;95.14;97805.00;5038690;28;20206;-71
2021/12/13 07:43:08;;;;;;;19.47;17.10;;;;;;;2.17;94.79;97805.53;5037980;28;20198;-75
2021/12/13 07:45:37;;;;;;;18.50;16.27;;;;;;;2.19;94.45;97794.13;5037876;28;20263;-71
2021/12/13 07:48:08;;;;;;;19.53;16.40;;;;;;;2.25;94.16;97803.44;5031419;28;20218;-74
2021/12/13 07:50:36;;;;;;;18.27;16.20;;;;;;;2.32;94.19;97807.50;5038002;28;20465;-71
2021/12/13 07:53:07;;;;;;;18.80;15.57;;;;;;;2.36;94.28;97798.63;5031605;28;20215;-71
2021/12/13 07:55:34;;;;;;;17.73;15.83;;;;;;;2.45;94.03;97800.84;5033709;28;20214;-71
2021/12/13 07:58:05;;;;;;;18.13;16.23;;;;;;;2.45;94.39;97799.09;5037269;28;20197;-71
2021/12/13 08:00:35;;;;;;;17.90;15.90;;;;;;;2.52;93.84;97812.72;5024666;28;20216;-76
2021/12/13 08:03:04;;;;;;;18.40;16.40;;;;;;;2.55;93.03;97806.53;5037678;28;20207;-76
2021/12/13 08:05:37;;;;;;;17.57;15.70;;;;;;;2.60;93.03;97808.03;5040766;28;20221;-71
2021/12/13 08:08:06;;;;;;;20.87;16.90;;;;;;;2.68;92.13;97811.16;5037111;28;20580;-71
2021/12/13 08:10:35;;;;;;;19.80;16.57;;;;;;;2.69;92.62;97806.81;5020196;28;20237;-71
2021/12/13 08:13:06;;;;;;;18.67;16.30;;;;;;;2.71;93.50;97813.63;5029336;28;20206;-71
2021/12/13 08:15:40;;;;;;;19.60;16.80;;;;;;;2.68;91.60;97816.38;5019121;28;20304;-76
2021/12/13 08:18:09;;;;;;;17.90;15.73;;;;;;;2.80;91.87;97815.84;5029947;28;20222;-76
2021/12/13 08:20:43;;;;;;;17.47;15.53;;;;;;;2.76;92.25;97806.47;5024156;28;20217;-76
2021/12/13 08:23:17;;;;;;;18.27;16.33;;;;;;;2.78;91.40;97809.84;5033267;28;20202;-76
2021/12/13 08:25:44;;;;;;;22.63;16.03;;;;;;;2.78;91.80;97814.22;5037033;28;20652;-71
2021/12/13 08:28:15;;;;;;;21.80;15.73;;;;;;;2.92;91.90;97810.09;5037175;28;20213;-70
2021/12/13 08:30:45;;;;;;;17.23;15.43;;;;;;;3.00;90.91;97802.78;5037533;28;20207;-70
2021/12/13 08:33:15;;;;;;;17.33;15.53;;;;;;;3.04;91.15;97802.63;5037227;28;20210;-75
2021/12/13 08:35:52;;;;;;;18.97;15.77;;;;;;;3.18;90.64;97805.47;5026381;28;20511;-75
2021/12/13 08:38:42;;;;;;;16.37;14.67;;;;;;;3.14;89.97;97806.53;5030037;28;20209;-71
2021/12/13 08:41:20;;;;;;;17.67;15.77;;;;;;;3.20;89.54;97807.09;5013086;28;20251;-70
2021/12/13 08:43:51;;;;;;;16.30;14.60;;;;;;;3.29;89.39;97808.44;5018654;28;20207;-76
2021/12/13 08:46:37;;;;;;;17.80;14.93;;;;;;;3.39;89.27;97812.31;5036483;28;20587;-74
2021/12/13 08:49:17;;;;;;;23.27;15.53;;;;;;;3.57;88.61;97816.72;5034262;28;20665;-75
2021/12/13 08:51:55;;;;;;;15.57;13.90;;;;;;;3.71;88.58;97810.81;5032468;28;20219;-76
2021/12/13 08:54:34;;;;;;;15.67;14.03;;;;;;;3.70;86.96;97809.97;5036898;28;20297;-76
2021/12/13 08:57:01;;;;;;;19.37;14.10;;;;;;;3.84;86.92;97806.69;5029562;28;20214;-70
2021/12/13 08:59:28;;;;;;;17.60;13.53;;;;;;;4.01;86.41;97809.34;5029590;28;20208;-71
2021/12/13 09:01:59;;;;;;;15.23;13.70;;;;;;;4.14;86.28;97807.00;5031533;28;20216;-75
2021/12/13 09:04:28;;;;;;;17.67;13.87;;;;;;;4.20;85.92;97806.69;5022012;28;20651;-71
2021/12/13 09:06:58;;;;;;;14.87;13.30;;;;;;;4.38;85.03;97814.47;5042094;28;20219;-72
2021/12/13 09:09:27;;;;;;;14.97;13.47;;;;;;;4.50;83.77;97813.84;5028231;28;20223;-76
2021/12/13 09:11:59;;;;;;;14.57;12.87;;;;;;;4.35;82.80;97813.78;5018921;28;20235;-72
2021/12/13 09:14:27;;;;;;;15.53;12.47;;;;;;;4.36;83.59;97811.06;5036844;28;20496;-71
2021/12/13 09:17:10;;;;;;;15.93;12.77;;;;;;;4.69;81.87;97813.75;5036191;28;20604;-75
2021/12/13 09:19:45;;;;;;;14.30;12.90;;;;;;;5.08;80.88;97820.47;5040842;28;20290;-76
2021/12/13 09:22:15;;;;;;;14.30;12.90;;;;;;;5.60;78.26;97824.63;5040243;28;20635;-76
2021/12/13 09:24:49;;;;;;;13.43;12.03;;;;;;;6.07;74.82;97818.56;5031025;28;20237;-76
2021/12/13 09:27:25;;;;;;;13.13;11.87;;;;;;;6.38;75.28;97821.13;5044245;28;20196;-71
2021/12/13 09:29:57;;;;;;;16.30;12.53;;;;;;;6.67;74.52;97822.91;5045628;28;20300;-76
2021/12/13 09:32:24;;;;;;;13.00;11.53;;;;;;;6.69;73.08;97823.66;5053377;28;20191;-78
2021/12/13 09:34:54;;;;;;;14.73;11.60;;;;;;;6.92;71.63;97820.50;5050642;28;20211;-77
2021/12/13 09:37:21;;;;;;;14.43;11.60;;;;;;;7.23;71.74;97818.63;5038665;28;20231;-76
2021/12/13 09:39:59;;;;;;;11.93;10.80;;;;;;;7.67;69.68;97808.84;5038566;28;20651;-78
2021/12/13 09:42:25;;;;;;;12.20;10.93;;;;;;;7.56;69.53;97813.94;5037978;28;20248;-75
2021/12/13 09:44:58;;;;;;;12.13;10.93;;;;;;;7.92;68.27;97816.88;5036521;28;20211;-75
2021/12/13 09:47:31;;;;;;;12.50;11.37;;;;;;;8.35;65.91;97811.50;5038657;28;20203;-75
2021/12/13 09:50:05;;;;;;;11.40;10.30;;;;;;;8.65;65.30;97805.97;5039090;28;20215;-76
2021/12/13 09:52:36;;;;;;;11.70;10.70;;;;;;;8.41;64.32;97806.66;5031500;28;20660;-77
2021/12/13 09:55:09;;;;;;;11.88;10.70;;;;;;;8.57;63.64;97806.50;5016509;28;20215;-76
2021/12/13 09:57:42;;;;;;;12.23;11.05;;;;;;;8.82;63.27;97806.50;5038825;28;20271;-75
2021/12/13 10:00:12;;;;;;;11.85;10.75;;;;;;;9.11;62.06;97798.41;5029749;28;20196;-75
2021/12/13 10:02:41;;;;;;;12.30;11.10;;;;;;;9.64;61.61;97794.63;5027848;28;20532;-76
2021/12/13 10:05:10;;;;;;;12.40;11.15;;;;;;;9.80;59.48;97793.47;5016197;28;20219;-72
2021/12/13 10:07:39;;;;;;;12.70;10.88;;;;;;;10.32;60.74;97785.22;5015653;28;20216;-76
2021/12/13 10:10:13;;;;;;;12.00;10.80;;;;;;;10.67;56.18;97785.25;5016178;28;20228;-73
2021/12/13 10:12:45;;;;;;;11.77;10.60;;;;;;;10.44;58.39;97781.69;5016344;28;20208;-73
2021/12/13 10:15:14;;;;;;;12.98;11.68;;;;;;;11.49;55.64;97776.22;5019899;28;20596;-75
2021/12/13 10:17:44;;;;;;;12.75;11.45;;;;;;;11.63;55.65;97772.47;5015927;28;20525;-73
2021/12/13 10:20:14;;;;;;;11.73;10.65;;;;;;;11.61;54.41;97769.09;5015805;28;20203;-73
2021/12/13 10:22:43;;;;;;;11.00;10.00;;;;;;;11.87;54.10;97766.06;5017611;28;20212;-73
2021/12/13 10:25:15;;;;;;;11.75;10.63;;;;;;;11.86;53.26;97772.34;5027867;28;20228;-73
2021/12/13 10:27:42;;;;;;;12.45;11.40;;;;;;;11.95;54.12;97763.66;5027331;28;20258;-72
2021/12/13 10:30:11;;;;;;;11.60;10.60;;;;;;;11.34;56.34;97761.50;5031516;28;20224;-74
2021/12/13 10:32:41;;;;;;;11.65;10.55;;;;;;;11.93;54.68;97760.28;5036239;28;20211;-74
2021/12/13 10:35:13;;;;;;;12.35;11.25;;;;;;;11.98;53.80;97758.09;5037465;28;20207;-75
2021/12/13 10:37:42;;;;;;;12.48;11.35;;;;;;;12.07;52.19;97756.53;5036755;28;20189;-76
2021/12/13 10:40:15;;;;;;;12.57;11.48;;;;;;;12.05;51.72;97753.13;5036987;28;20180;-75
2021/12/13 10:42:45;;;;;;;12.98;11.77;;;;;;;12.01;51.78;97750.88;5036786;28;20265;-77
2021/12/13 10:45:14;;;;;;;11.90;10.90;;;;;;;11.71;52.13;97754.19;5038013;28;20204;-76
2021/12/13 10:47:44;;;;;;;12.40;11.40;;;;;;;11.59;53.20;97752.47;5041472;28;20204;-74
2021/12/13 10:50:14;;;;;;;12.88;11.77;;;;;;;11.24;53.32;97749.97;5037738;28;20228;-77
2021/12/13 10:52:48;;;;;;;13.70;12.27;;;;;;;10.68;55.20;97744.59;5036667;28;20207;-77
2021/12/13 10:55:19;;;;;;;13.10;11.75;;;;;;;10.16;56.65;97745.03;5054293;28;20196;-75
2021/12/13 10:57:48;;;;;;;13.43;12.32;;;;;;;9.68;57.60;97730.94;5035443;28;20734;-76
2021/12/13 11:00:17;;;;;;;13.32;12.10;;;;;;;8.98;61.71;97733.31;5039705;28;20212;-77
2021/12/13 11:02:44;;;;;;;12.93;11.73;;;;;;;8.45;63.59;97730.84;5038962;28;20207;-74
2021/12/13 11:05:13;;;;;;;12.93;11.73;;;;;;;8.46;64.04;97729.91;5041380;28;20203;-76
2021/12/13 11:07:40;;;;;;;13.13;11.93;;;;;;;8.31;65.08;97726.50;5038815;28;20223;-76
2021/12/13 11:10:08;;;;;;;13.40;12.13;;;;;;;7.78;66.92;97721.28;5038152;28;20236;-76
2021/12/13 11:12:40;;;;;;;13.17;11.90;;;;;;;7.83;67.45;97721.81;5038128;28;20211;-76
2021/12/13 11:15:10;;;;;;;13.90;12.57;;;;;;;7.51;67.46;97719.44;5038192;28;20211;-75
2021/12/13 11:17:37;;;;;;;14.10;12.70;;;;;;;7.50;68.43;97711.69;5038253;28;20226;-76
2021/12/13 11:20:10;;;;;;;13.97;12.67;;;;;;;7.49;67.74;97716.09;5021752;28;20227;-75
2021/12/13 11:22:36;;;;;;;14.53;13.13;;;;;;;7.38;67.66;97709.81;5018307;28;20640;-74
2021/12/13 11:25:07;;;;;;;13.87;12.57;;;;;;;7.24;70.09;97704.56;5027462;28;20212;-76
2021/12/13 11:27:36;;;;;;;14.07;12.67;;;;;;;7.15;70.34;97711.28;5032291;28;20211;-77
2021/12/13 11:30:07;;;;;;;13.93;12.53;;;;;;;7.08;71.53;97715.22;5038183;28;20261;-76
2021/12/13 11:33:07;;;;;;;14.93;13.33;;;;;;;7.14;69.58;97706.09;5027913;28;20620;-75
2021/12/13 11:36:26;;;;;;;13.53;11.87;;;;;;;7.29;70.85;97702.50;5028982;28;20512;-77
2021/12/13 11:39:21;;;;;;;13.43;12.13;;;;;;;7.27;70.95;97707.00;5031648;28;20261;-78
2021/12/13 11:42:01;;;;;;;13.07;11.70;;;;;;;7.34;71.39;97708.31;5042843;28;20264;-77
2021/12/13 11:44:41;;;;;;;13.40;12.00;;;;;;;7.54;68.69;97701.78;5031329;28;20233;-75
2021/12/13 11:47:22;;;;;;;14.30;12.80;;;;;;;7.57;67.95;97697.19;5039274;28;20200;-74
2021/12/13 11:50:11;;;;;;;12.97;11.67;;;;;;;7.68;70.16;97699.13;5038687;28;20215;-75
2021/12/13 11:53:10;;;;;;;13.20;11.87;;;;;;;7.74;67.67;97702.19;5031299;28;20220;-75
2021/12/13 11:55:48;;;;;;;14.00;12.60;;;;;;;7.96;66.10;97702.47;5030509;28;20258;-74